createdAt,value
2022-12-23T00:00:44.611Z,6.70
2022-12-23T00:03:12.244Z,7.57
2022-12-23T00:05:40.183Z,7.22
2022-12-23T00:08:08.033Z,6.40
2022-12-23T00:10:35.917Z,5.55
2022-12-23T00:13:21.572Z,4.80
2022-12-23T00:15:48.718Z,4.80
2022-12-23T00:18:16.107Z,4.43
2022-12-23T00:20:43.275Z,4.47
2022-12-23T00:23:10.479Z,4.13
2022-12-23T00:25:44.961Z,4.35
2022-12-23T00:28:17.491Z,5.15
2022-12-23T00:30:46.224Z,2.92
2022-12-23T00:33:14.036Z,2.17
2022-12-23T00:35:41.245Z,1.85
2022-12-23T00:38:08.489Z,3.00
2022-12-23T00:40:54.489Z,2.00
2022-12-23T00:43:21.700Z,1.20
2022-12-23T00:45:49.130Z,1.48
2022-12-23T00:48:35.637Z,1.10
2022-12-23T00:51:02.808Z,1.63
2022-12-23T00:53:30.048Z,1.23
2022-12-23T00:55:57.187Z,1.42
2022-12-23T00:58:24.388Z,1.42
2022-12-23T01:01:13.077Z,1.00
2022-12-23T01:03:59.036Z,1.00
2022-12-23T01:06:26.204Z,1.20
2022-12-23T01:08:53.388Z,0.70
2022-12-23T01:11:20.665Z,0.80
2022-12-23T01:13:50.504Z,1.20
2022-12-23T01:16:18.066Z,1.00
2022-12-23T01:18:45.657Z,1.08
2022-12-23T01:21:14.614Z,0.93
2022-12-23T01:23:41.859Z,1.13
2022-12-23T01:26:09.021Z,0.80
2022-12-23T01:28:36.877Z,0.73
2022-12-23T01:31:05.125Z,0.75
2022-12-23T01:33:33.173Z,0.85
2022-12-23T01:36:04.210Z,0.68
2022-12-23T01:38:31.363Z,0.40
2022-12-23T01:40:58.627Z,0.57
2022-12-23T01:43:44.597Z,0.60
2022-12-23T01:46:11.848Z,0.50
2022-12-23T01:48:39.514Z,0.82
2022-12-23T01:51:09.601Z,0.93
2022-12-23T01:53:39.240Z,0.45
2022-12-23T01:56:15.905Z,0.68
2022-12-23T01:58:49.286Z,0.47
2022-12-23T02:01:35.797Z,0.52
2022-12-23T02:04:04.773Z,0.70
2022-12-23T02:06:53.109Z,0.50
2022-12-23T02:09:22.572Z,0.75
2022-12-23T02:11:52.699Z,0.45
2022-12-23T02:14:45.660Z,0.40
2022-12-23T02:17:20.398Z,0.32
2022-12-23T02:20:08.685Z,0.60
2022-12-23T02:22:39.068Z,0.32
2022-12-23T02:25:21.506Z,0.30
2022-12-23T02:27:58.699Z,0.30
2022-12-23T02:30:41.446Z,0.45
2022-12-23T02:33:16.440Z,0.30
2022-12-23T02:35:52.842Z,0.47
2022-12-23T02:38:39.927Z,0.63
2022-12-23T02:41:16.310Z,0.50
2022-12-23T02:43:43.402Z,0.80
2022-12-23T02:46:13.758Z,0.60
2022-12-23T02:49:02.487Z,1.05
2022-12-23T02:51:35.076Z,0.70
2022-12-23T02:54:03.908Z,0.63
2022-12-23T02:56:32.558Z,0.63
2022-12-23T02:59:02.575Z,0.63
2022-12-23T03:01:32.162Z,0.50
2022-12-23T03:04:00.037Z,0.50
2022-12-23T03:06:30.430Z,0.57
2022-12-23T03:08:59.166Z,0.43
2022-12-23T03:11:40.010Z,0.50
2022-12-23T03:14:15.594Z,0.43
2022-12-23T03:16:42.915Z,0.70
2022-12-23T03:19:28.783Z,0.40
2022-12-23T03:22:20.784Z,0.52
2022-12-23T03:24:55.193Z,0.70
2022-12-23T03:27:34.628Z,0.60
2022-12-23T03:30:09.598Z,0.60
2022-12-23T03:32:39.943Z,0.55
2022-12-23T03:35:08.732Z,0.68
2022-12-23T03:37:37.298Z,0.70
2022-12-23T03:40:28.094Z,0.60
2022-12-23T03:43:04.048Z,0.73
2022-12-23T03:45:39.295Z,0.77
2022-12-23T03:48:10.599Z,1.63
2022-12-23T03:50:41.712Z,1.25
2022-12-23T03:53:14.868Z,0.70
2022-12-23T03:55:45.807Z,1.38
2022-12-23T03:58:25.972Z,1.27
2022-12-23T04:01:04.600Z,1.75
2022-12-23T04:03:38.128Z,1.70
2022-12-23T04:08:36.704Z,2.20
2022-12-23T04:11:04.309Z,2.10
2022-12-23T04:13:31.925Z,1.00
2022-12-23T04:15:59.925Z,0.80
2022-12-23T04:18:27.573Z,0.70
2022-12-23T04:20:54.777Z,0.80
2022-12-23T04:23:22.051Z,1.40
2022-12-23T04:25:49.311Z,1.70
2022-12-23T04:28:18.148Z,2.15
2022-12-23T04:30:45.338Z,1.80
2022-12-23T04:33:13.148Z,1.23
2022-12-23T04:35:40.292Z,1.20
2022-12-23T04:38:08.174Z,1.33
2022-12-23T04:40:35.438Z,0.60
2022-12-23T04:43:02.650Z,0.60
2022-12-23T04:45:29.856Z,0.50
2022-12-23T04:47:57.687Z,0.70
2022-12-23T04:50:24.885Z,0.65
2022-12-23T04:52:52.061Z,0.57
2022-12-23T04:55:19.283Z,1.10
2022-12-23T04:57:49.299Z,0.82
2022-12-23T05:00:16.696Z,0.80
2022-12-23T05:02:44.086Z,0.65
2022-12-23T05:05:11.401Z,0.90
2022-12-23T05:07:38.606Z,3.33
2022-12-23T05:10:05.949Z,1.90
2022-12-23T05:12:33.193Z,2.03
2022-12-23T05:15:00.394Z,1.58
2022-12-23T05:17:27.653Z,4.40
2022-12-23T05:19:54.779Z,5.93
2022-12-23T05:22:22.163Z,5.22
2022-12-23T05:24:49.439Z,10.43
2022-12-23T05:27:16.642Z,10.60
2022-12-23T05:29:44.053Z,9.40
2022-12-23T05:32:11.279Z,8.07
2022-12-23T05:34:38.744Z,3.80
2022-12-23T05:37:05.968Z,3.97
2022-12-23T05:39:35.180Z,3.28
2022-12-23T05:42:02.307Z,4.30
2022-12-23T05:44:29.556Z,1.20
2022-12-23T05:46:56.712Z,1.02
2022-12-23T05:49:25.376Z,2.03
2022-12-23T05:51:52.561Z,0.80
2022-12-23T05:54:19.798Z,0.30
2022-12-23T05:56:46.914Z,1.00
2022-12-23T05:59:14.782Z,0.60
2022-12-23T06:01:41.991Z,0.80
2022-12-23T06:04:09.356Z,0.20
2022-12-23T06:06:36.600Z,0.30
2022-12-23T06:09:04.003Z,0.10
2022-12-23T06:11:31.172Z,0.28
2022-12-23T06:13:58.406Z,0.35
2022-12-23T06:16:25.665Z,0.10
2022-12-23T06:18:56.501Z,0.10
2022-12-23T06:21:25.523Z,0.10
2022-12-23T06:23:52.932Z,0.13
2022-12-23T06:26:20.495Z,0.13
2022-12-23T06:28:47.712Z,0.10
2022-12-23T06:31:14.887Z,0.08
2022-12-23T06:33:42.166Z,0.20
2022-12-23T06:36:09.480Z,0.32
2022-12-23T06:38:36.646Z,0.70
2022-12-23T06:41:03.867Z,8.32
2022-12-23T06:43:31.028Z,3.85
2022-12-23T06:45:58.232Z,2.60
2022-12-23T06:48:25.517Z,1.85
2022-12-23T06:50:52.809Z,2.70
2022-12-23T06:53:19.984Z,3.95
2022-12-23T06:55:47.299Z,4.25
2022-12-23T06:58:14.477Z,4.07
2022-12-23T07:00:41.752Z,2.83
2022-12-23T07:03:09.004Z,1.50
2022-12-23T07:05:37.659Z,1.58
2022-12-23T07:08:05.261Z,1.85
2022-12-23T07:10:32.517Z,4.25
2022-12-23T07:12:59.873Z,5.07
2022-12-23T07:15:27.026Z,5.00
2022-12-23T07:17:55.003Z,5.95
2022-12-23T07:20:22.395Z,5.03
2022-12-23T07:22:50.382Z,5.50
2022-12-23T07:25:17.478Z,4.78
2022-12-23T07:27:44.742Z,4.82
2022-12-23T07:30:12.069Z,4.00
2022-12-23T07:32:39.867Z,3.00
2022-12-23T07:35:07.309Z,1.67
2022-12-23T07:37:34.640Z,3.10
2022-12-23T07:40:08.133Z,2.80
2022-12-23T07:42:45.606Z,2.63
2022-12-23T07:45:13.170Z,1.95
2022-12-23T07:47:40.560Z,2.97
2022-12-23T07:50:08.118Z,4.30
2022-12-23T07:52:35.260Z,4.43
2022-12-23T07:55:02.451Z,5.22
2022-12-23T07:57:29.657Z,11.68
2022-12-23T07:59:57.249Z,13.40
2022-12-23T08:02:25.423Z,16.10
2022-12-23T08:04:52.911Z,14.77
2022-12-23T08:07:20.064Z,12.65
2022-12-23T08:09:47.319Z,11.57
2022-12-23T08:12:14.551Z,9.95
2022-12-23T08:14:41.697Z,9.68
2022-12-23T08:17:09.072Z,8.25
2022-12-23T08:19:36.296Z,8.43
2022-12-23T08:22:03.490Z,8.23
2022-12-23T08:24:30.672Z,5.03
2022-12-23T08:26:58.331Z,6.13
2022-12-23T08:29:25.561Z,6.10
2022-12-23T08:31:54.110Z,6.35
2022-12-23T08:34:21.262Z,6.97
2022-12-23T08:36:48.487Z,8.30
2022-12-23T08:39:16.111Z,9.80
2022-12-23T08:41:45.214Z,19.65
2022-12-23T08:44:12.472Z,15.60
2022-12-23T08:46:39.897Z,18.17
2022-12-23T08:49:07.571Z,18.90
2022-12-23T08:51:34.760Z,17.90
2022-12-23T08:54:01.980Z,14.60
2022-12-23T08:56:31.732Z,7.65
2022-12-23T08:58:59.527Z,10.88
2022-12-23T09:01:27.843Z,13.07
2022-12-23T09:03:55.265Z,10.85
2022-12-23T09:06:29.019Z,9.75
2022-12-23T09:08:57.894Z,7.32
2022-12-23T09:11:26.175Z,6.18
2022-12-23T09:13:53.657Z,5.15
2022-12-23T09:16:21.495Z,9.23
2022-12-23T09:18:48.850Z,10.05
2022-12-23T09:21:17.971Z,6.63
2022-12-23T09:23:45.343Z,7.95
2022-12-23T09:26:17.748Z,8.48
2022-12-23T09:28:44.912Z,11.82
2022-12-23T09:31:13.202Z,15.05
2022-12-23T09:33:40.591Z,16.40
2022-12-23T09:36:08.157Z,10.30
2022-12-23T09:38:36.198Z,11.60
2022-12-23T09:41:04.591Z,6.57
2022-12-23T09:43:43.674Z,7.65
2022-12-23T09:46:18.646Z,7.93
2022-12-23T09:49:06.238Z,4.45
2022-12-23T09:51:35.010Z,6.70
2022-12-23T09:54:17.308Z,5.30
2022-12-23T09:57:03.829Z,4.13
2022-12-23T09:59:49.792Z,5.43
2022-12-23T10:02:28.613Z,8.50
2022-12-23T10:05:14.766Z,5.88
2022-12-23T10:07:46.801Z,3.50
2022-12-23T10:10:18.956Z,4.28
2022-12-23T10:12:47.928Z,6.03
2022-12-23T10:15:30.719Z,6.80
2022-12-23T10:18:01.931Z,6.30
2022-12-23T10:20:45.164Z,4.45
2022-12-23T10:23:16.803Z,4.40
2022-12-23T10:25:51.720Z,1.50
2022-12-23T10:28:18.965Z,2.92
2022-12-23T10:31:11.138Z,0.40
2022-12-23T10:33:46.428Z,0.60
2022-12-23T10:36:28.863Z,0.20
2022-12-23T10:39:25.555Z,0.40
2022-12-23T10:42:11.567Z,0.68
2022-12-23T10:44:46.722Z,0.55
2022-12-23T10:47:26.360Z,0.60
2022-12-23T10:50:00.429Z,0.70
2022-12-23T10:52:30.591Z,1.10
2022-12-23T10:54:57.753Z,0.90
2022-12-23T10:57:26.054Z,0.63
2022-12-23T10:59:53.367Z,0.40
2022-12-23T11:02:43.681Z,0.43
2022-12-23T11:05:16.128Z,0.38
2022-12-23T11:07:45.760Z,0.32
2022-12-23T11:10:18.113Z,0.20
2022-12-23T11:12:47.376Z,0.43
2022-12-23T11:15:38.764Z,0.20
2022-12-23T11:18:05.954Z,0.20
2022-12-23T11:20:34.373Z,0.40
2022-12-23T11:23:03.060Z,0.20
2022-12-23T11:25:44.196Z,0.30
2022-12-23T11:28:11.308Z,0.20
2022-12-23T11:30:39.908Z,0.20
2022-12-23T11:33:07.112Z,0.20
2022-12-23T11:35:36.469Z,0.20
2022-12-23T11:38:04.500Z,0.40
2022-12-23T11:40:36.574Z,0.20
2022-12-23T11:43:05.325Z,0.20
2022-12-23T11:45:36.855Z,0.65
2022-12-23T11:48:04.662Z,0.20
2022-12-23T11:50:33.717Z,0.88
2022-12-23T11:53:19.553Z,0.40
2022-12-23T11:56:05.363Z,0.90
2022-12-23T11:58:38.219Z,0.38
2022-12-23T12:01:09.428Z,0.43
2022-12-23T12:03:47.919Z,0.40
2022-12-23T12:06:17.122Z,0.60
2022-12-23T12:08:44.306Z,0.50
2022-12-23T12:11:17.716Z,0.43
2022-12-23T12:13:53.754Z,0.30
2022-12-23T12:16:39.764Z,0.82
2022-12-23T12:19:11.315Z,5.20
2022-12-23T12:21:38.986Z,0.50
2022-12-23T12:24:18.733Z,0.20
2022-12-23T12:26:50.985Z,0.47
2022-12-23T12:29:21.419Z,0.65
2022-12-23T12:31:49.958Z,0.55
2022-12-23T12:34:17.052Z,1.00
2022-12-23T12:36:53.956Z,0.30
2022-12-23T12:39:28.139Z,0.35
2022-12-23T12:42:05.026Z,6.90
2022-12-23T12:44:42.430Z,0.35
2022-12-23T12:50:27.887Z,0.40
2022-12-23T12:52:57.444Z,0.85
2022-12-23T12:55:30.611Z,1.20
2022-12-23T12:57:57.768Z,4.43
2022-12-23T13:00:25.508Z,1.83
2022-12-23T13:03:11.571Z,1.20
2022-12-23T13:05:57.731Z,0.30
2022-12-23T13:08:37.180Z,0.50
2022-12-23T13:11:15.356Z,0.63
2022-12-23T13:14:05.853Z,0.52
2022-12-23T13:16:49.383Z,0.50
2022-12-23T13:19:25.900Z,0.25
2022-12-23T13:22:01.602Z,0.40
2022-12-23T13:24:34.762Z,0.20
2022-12-23T13:27:08.317Z,0.30
2022-12-23T13:29:47.855Z,0.30
2022-12-23T13:32:23.366Z,0.60
2022-12-23T13:34:56.456Z,0.52
2022-12-23T13:37:29.636Z,0.50
2022-12-23T13:40:12.068Z,0.45
2022-12-23T13:42:42.767Z,0.57
2022-12-23T13:45:17.509Z,1.00
2022-12-23T13:47:49.377Z,0.80
2022-12-23T13:50:23.001Z,3.58
2022-12-23T13:55:17.275Z,0.70
2022-12-23T13:57:50.425Z,0.63
2022-12-23T14:00:17.661Z,0.88
2022-12-23T14:02:51.254Z,0.70
2022-12-23T14:07:45.888Z,0.30
2022-12-23T14:10:21.702Z,0.30
2022-12-23T14:12:49.113Z,0.52
2022-12-23T14:15:28.858Z,0.40
2022-12-23T14:18:08.750Z,0.40
2022-12-23T14:20:45.203Z,0.50
2022-12-23T14:23:33.577Z,0.50
2022-12-23T14:26:07.992Z,0.30
2022-12-23T14:28:50.158Z,0.70
2022-12-23T14:31:29.444Z,0.45
2022-12-23T14:34:03.270Z,0.40
2022-12-23T14:36:30.610Z,0.45
2022-12-23T14:39:17.873Z,0.50
2022-12-23T14:41:51.211Z,0.50
2022-12-23T14:44:20.134Z,0.98
2022-12-23T14:46:47.303Z,1.00
2022-12-23T14:49:39.663Z,9.75
2022-12-23T14:52:26.075Z,0.60
2022-12-23T14:55:21.076Z,0.73
2022-12-23T14:57:40.439Z,0.73
2022-12-23T15:00:08.090Z,1.20
2022-12-23T15:02:37.587Z,5.47
2022-12-23T15:05:05.187Z,10.02
2022-12-23T15:07:39.818Z,3.92
2022-12-23T15:10:28.995Z,5.60
2022-12-23T15:12:57.720Z,7.70
2022-12-23T15:15:26.264Z,9.00
2022-12-23T15:18:03.618Z,6.25
2022-12-23T15:20:31.123Z,2.10
2022-12-23T15:23:02.301Z,2.00
2022-12-23T15:25:31.209Z,1.55
2022-12-23T15:28:01.883Z,1.05
2022-12-23T15:30:31.540Z,1.10
2022-12-23T15:33:34.774Z,1.77
2022-12-23T15:35:56.241Z,1.55
2022-12-23T15:38:25.908Z,1.80
2022-12-23T15:41:01.244Z,2.10
2022-12-23T15:43:28.722Z,2.38
2022-12-23T15:46:05.051Z,2.88
2022-12-23T15:48:33.225Z,4.80
2022-12-23T15:51:03.245Z,5.40
2022-12-23T15:53:38.284Z,10.23
2022-12-23T15:56:11.033Z,8.20
2022-12-23T15:58:39.842Z,4.47
2022-12-23T16:01:07.903Z,3.90
2022-12-23T16:03:37.523Z,3.63
2022-12-23T16:06:22.202Z,3.17
2022-12-23T16:08:56.689Z,4.03
2022-12-23T16:11:24.288Z,5.45
2022-12-23T16:14:02.820Z,10.55
2022-12-23T16:16:32.583Z,17.00
2022-12-23T16:18:59.926Z,8.93
2022-12-23T16:21:31.902Z,14.10
2022-12-23T16:23:59.695Z,17.85
2022-12-23T16:26:27.104Z,15.63
2022-12-23T16:28:56.087Z,17.42
2022-12-23T16:31:24.397Z,17.83
2022-12-23T16:33:55.809Z,19.10
2022-12-23T16:36:23.919Z,16.70
2022-12-23T16:38:52.568Z,24.90
2022-12-23T16:41:20.733Z,19.67
2022-12-23T16:43:52.734Z,22.13
2022-12-23T16:46:21.323Z,19.95
2022-12-23T16:49:11.066Z,15.23
2022-12-23T16:51:39.167Z,14.73
2022-12-23T16:54:06.440Z,16.58
2022-12-23T16:56:39.799Z,16.30
2022-12-23T16:59:07.347Z,17.42
2022-12-23T17:01:35.737Z,16.98
2022-12-23T17:04:02.938Z,19.27
2022-12-23T17:06:30.159Z,19.40
2022-12-23T17:08:57.482Z,17.85
2022-12-23T17:11:36.908Z,18.00
2022-12-23T17:14:09.123Z,19.17
2022-12-23T17:16:39.184Z,20.83
2022-12-23T17:19:06.376Z,26.15
2022-12-23T17:21:36.727Z,22.58
2022-12-23T17:24:06.277Z,24.33
2022-12-23T17:26:33.516Z,22.25
2022-12-23T17:29:00.751Z,19.35
2022-12-23T17:31:28.019Z,18.70
2022-12-23T17:33:55.312Z,15.95
2022-12-23T17:36:23.103Z,17.20
2022-12-23T17:38:50.362Z,15.13
2022-12-23T17:41:23.777Z,15.85
2022-12-23T17:43:51.029Z,15.00
2022-12-23T17:46:18.254Z,14.15
2022-12-23T17:48:47.085Z,22.13
2022-12-23T17:51:15.669Z,25.65
2022-12-23T17:53:42.994Z,28.17
2022-12-23T17:56:12.054Z,27.27
2022-12-23T17:58:39.284Z,32.75
2022-12-23T18:01:06.638Z,30.83
2022-12-23T18:03:33.850Z,29.52
2022-12-23T18:06:02.283Z,20.50
2022-12-23T18:08:29.737Z,26.30
2022-12-23T18:10:57.896Z,27.00
2022-12-23T18:13:25.106Z,19.42
2022-12-23T18:15:52.699Z,19.80
2022-12-23T18:18:28.631Z,10.95
2022-12-23T18:20:58.968Z,10.25
2022-12-23T18:23:27.401Z,11.55
2022-12-23T18:25:55.043Z,9.43
2022-12-23T18:28:22.373Z,12.65
2022-12-23T18:30:50.133Z,14.07
2022-12-23T18:33:17.575Z,11.23
2022-12-23T18:35:49.416Z,12.75
2022-12-23T18:38:17.094Z,9.80
2022-12-23T18:40:44.635Z,11.75
2022-12-23T18:43:18.708Z,12.52
2022-12-23T18:45:50.812Z,14.88
2022-12-23T18:48:20.342Z,12.98
2022-12-23T18:50:47.777Z,14.43
2022-12-23T18:53:23.432Z,16.65
2022-12-23T18:55:51.361Z,13.60
2022-12-23T18:58:18.644Z,14.20
2022-12-23T19:00:46.182Z,22.90
2022-12-23T19:03:22.470Z,16.98
2022-12-23T19:05:50.041Z,34.15
2022-12-23T19:08:23.548Z,21.20
2022-12-23T19:10:53.873Z,19.13
2022-12-23T19:13:21.096Z,24.95
2022-12-23T19:15:48.418Z,20.58
2022-12-23T19:18:17.042Z,19.55
2022-12-23T19:20:45.067Z,17.92
2022-12-23T19:23:12.619Z,13.98
2022-12-23T19:25:47.778Z,23.90
2022-12-23T19:28:21.966Z,25.00
2022-12-23T19:30:50.059Z,19.15
2022-12-23T19:33:17.406Z,17.95
2022-12-23T19:35:44.817Z,23.90
2022-12-23T19:38:12.745Z,20.30
2022-12-23T19:40:40.136Z,24.98
2022-12-23T19:43:07.366Z,20.48
2022-12-23T19:45:34.588Z,20.05
2022-12-23T19:48:01.857Z,18.98
2022-12-23T19:50:29.033Z,26.10
2022-12-23T19:52:56.579Z,19.50
2022-12-23T19:55:23.999Z,25.55
2022-12-23T19:57:52.285Z,25.40
2022-12-23T20:00:19.753Z,47.63
2022-12-23T20:02:47.062Z,30.80
2022-12-23T20:05:14.289Z,32.10
2022-12-23T20:07:42.554Z,36.40
2022-12-23T20:10:10.160Z,35.92
2022-12-23T20:12:37.553Z,32.53
2022-12-23T20:15:04.830Z,31.98
2022-12-23T20:17:32.216Z,29.90
2022-12-23T20:19:59.778Z,28.35
2022-12-23T20:22:27.137Z,31.08
2022-12-23T20:24:54.477Z,21.58
2022-12-23T20:27:27.621Z,23.05
2022-12-23T20:29:55.138Z,20.67
2022-12-23T20:32:22.331Z,13.57
2022-12-23T20:34:50.184Z,10.75
2022-12-23T20:37:17.804Z,12.23
2022-12-23T20:39:45.167Z,13.27
2022-12-23T20:42:12.534Z,19.65
2022-12-23T20:44:39.903Z,22.33
2022-12-23T20:47:07.289Z,27.00
2022-12-23T20:49:34.663Z,24.23
2022-12-23T20:52:02.172Z,24.83
2022-12-23T20:54:33.344Z,20.02
2022-12-23T20:57:01.939Z,23.35
2022-12-23T20:59:29.261Z,19.92
2022-12-23T21:01:59.578Z,16.30
2022-12-23T21:04:27.115Z,13.73
2022-12-23T21:06:54.453Z,21.38
2022-12-23T21:09:21.652Z,18.65
2022-12-23T21:11:49.679Z,21.58
2022-12-23T21:14:17.288Z,19.13
2022-12-23T21:16:44.855Z,18.35
2022-12-23T21:19:17.128Z,13.63
2022-12-23T21:21:44.548Z,15.18
2022-12-23T21:24:12.500Z,18.08
2022-12-23T21:26:40.068Z,14.65
2022-12-23T21:29:08.000Z,16.83
2022-12-23T21:31:36.826Z,15.63
2022-12-23T21:34:07.538Z,23.83
2022-12-23T21:36:36.457Z,21.38
2022-12-23T21:39:04.484Z,18.30
2022-12-23T21:41:32.825Z,13.88
2022-12-23T21:44:00.601Z,13.02
2022-12-23T21:46:28.483Z,14.50
2022-12-23T21:48:56.505Z,14.63
2022-12-23T21:51:33.340Z,13.48
2022-12-23T21:54:05.496Z,15.50
2022-12-23T21:56:32.955Z,14.13
2022-12-23T21:59:05.042Z,12.75
2022-12-23T22:01:32.737Z,15.98
2022-12-23T22:04:00.249Z,17.75
2022-12-23T22:06:28.776Z,17.10
2022-12-23T22:08:56.573Z,24.52
2022-12-23T22:11:25.289Z,17.13
2022-12-23T22:13:53.288Z,66.22
2022-12-23T22:16:22.454Z,23.35
2022-12-23T22:18:50.289Z,18.95
2022-12-23T22:21:19.258Z,18.92
2022-12-23T22:23:46.928Z,15.75
2022-12-23T22:26:18.874Z,19.13
2022-12-23T22:28:51.664Z,27.73
2022-12-23T22:31:21.123Z,20.73
2022-12-23T22:33:48.753Z,18.60
2022-12-23T22:36:17.072Z,16.55
2022-12-23T22:38:44.830Z,11.45
2022-12-23T22:41:12.251Z,8.95
2022-12-23T22:43:39.576Z,9.23
2022-12-23T22:46:07.163Z,10.25
2022-12-23T22:48:34.947Z,9.05
2022-12-23T22:51:06.200Z,8.80
2022-12-23T22:53:33.611Z,5.80
2022-12-23T22:56:01.369Z,6.25
2022-12-23T22:58:29.269Z,6.40
2022-12-23T23:00:57.088Z,6.82
2022-12-23T23:03:25.686Z,6.75
2022-12-23T23:06:07.409Z,5.43
2022-12-23T23:08:35.381Z,6.38
2022-12-23T23:11:04.729Z,6.60
2022-12-23T23:13:33.896Z,4.55
2022-12-23T23:16:01.832Z,4.43
2022-12-23T23:18:29.974Z,4.63
2022-12-23T23:20:57.312Z,4.18
2022-12-23T23:23:24.689Z,4.10
2022-12-23T23:25:52.110Z,5.07
2022-12-23T23:28:19.607Z,2.92
2022-12-23T23:30:46.908Z,2.70
2022-12-23T23:33:14.210Z,2.67
2022-12-23T23:35:41.637Z,2.53
2022-12-23T23:38:09.416Z,2.47
2022-12-23T23:40:36.677Z,2.42
2022-12-23T23:43:04.116Z,2.30
2022-12-23T23:45:31.518Z,2.65
2022-12-23T23:47:58.919Z,2.25
2022-12-23T23:50:26.204Z,2.47
2022-12-23T23:52:53.403Z,2.08
2022-12-23T23:55:23.557Z,2.03
2022-12-23T23:57:50.988Z,1.88
